sensor_id;sensor_type;location;lat;lon;timestamp;pressure;altitude;pressure_sealevel;temperature;humidity
596;BME280;19946;49.306;11.350;2023-06-19T00:22:09;96051.91;;;19.93;45.35
596;BME280;19946;49.306;11.350;2023-06-19T00:25:10;96071.13;;;19.93;48.77
596;BME280;19946;49.306;11.350;2023-06-19T00:28:10;96041.88;;;19.55;48.73
596;BME280;19946;49.306;11.350;2023-06-19T00:31:14;96065.47;;;19.49;48.56
596;BME280;19946;49.306;11.350;2023-06-19T00:34:15;96045.41;;;19.41;47.35
596;BME280;19946;49.306;11.350;2023-06-19T00:37:15;96032.94;;;19.15;50.18
596;BME280;19946;49.306;11.350;2023-06-19T00:40:27;96037.16;;;19.10;49.86
596;BME280;19946;49.306;11.350;2023-06-19T00:43:28;96064.78;;;19.33;50.28
596;BME280;19946;49.306;11.350;2023-06-19T00:46:28;96059.53;;;19.33;48.80
596;BME280;19946;49.306;11.350;2023-06-19T01:06:05;96076.88;;;19.62;49.00
596;BME280;19946;49.306;11.350;2023-06-19T01:15:43;96067.03;;;19.43;51.12
596;BME280;19946;49.306;11.350;2023-06-19T01:18:44;96048.63;;;19.37;49.35
596;BME280;19946;49.306;11.350;2023-06-19T04:48:54;96175.34;;;20.88;66.93
596;BME280;19946;49.306;11.350;2023-06-19T04:51:58;96162.16;;;20.68;68.22
596;BME280;19946;49.306;11.350;2023-06-19T04:55:01;96180.78;;;20.60;70.28
596;BME280;19946;49.306;11.350;2023-06-19T05:58:53;96174.00;;;22.80;54.03
596;BME280;19946;49.306;11.350;2023-06-19T06:01:53;96218.66;;;22.82;55.49
596;BME280;19946;49.306;11.350;2023-06-19T06:04:53;96206.53;;;23.80;53.02
596;BME280;19946;49.306;11.350;2023-06-19T06:07:54;96210.75;;;22.75;56.60
596;BME280;19946;49.306;11.350;2023-06-19T06:10:55;96219.84;;;23.17;58.62
596;BME280;19946;49.306;11.350;2023-06-19T06:13:55;96211.50;;;23.20;58.72
596;BME280;19946;49.306;11.350;2023-06-19T06:16:56;96239.06;;;23.31;62.89
596;BME280;19946;49.306;11.350;2023-06-19T06:19:56;96243.25;;;22.76;100.00
596;BME280;19946;49.306;11.350;2023-06-19T06:22:56;96265.59;;;21.82;100.00
596;BME280;19946;49.306;11.350;2023-06-19T06:25:56;96269.44;;;20.66;100.00
596;BME280;19946;49.306;11.350;2023-06-19T06:29:02;96260.16;;;19.95;100.00
596;BME280;19946;49.306;11.350;2023-06-19T06:32:04;96275.28;;;20.21;100.00
596;BME280;19946;49.306;11.350;2023-06-19T06:35:06;96274.91;;;20.30;100.00
596;BME280;19946;49.306;11.350;2023-06-19T06:38:06;96282.16;;;20.22;100.00
596;BME280;19946;49.306;11.350;2023-06-19T06:41:06;96292.06;;;20.20;100.00
596;BME280;19946;49.306;11.350;2023-06-19T06:44:07;96282.91;;;20.16;100.00
596;BME280;19946;49.306;11.350;2023-06-19T06:47:07;96279.84;;;19.78;100.00
596;BME280;19946;49.306;11.350;2023-06-19T06:50:08;96277.06;;;19.86;100.00
596;BME280;19946;49.306;11.350;2023-06-19T06:53:09;96263.34;;;19.90;100.00
596;BME280;19946;49.306;11.350;2023-06-19T06:56:10;96266.78;;;19.91;100.00
596;BME280;19946;49.306;11.350;2023-06-19T06:59:10;96290.59;;;19.83;100.00
596;BME280;19946;49.306;11.350;2023-06-19T07:02:10;96303.28;;;20.07;100.00
596;BME280;19946;49.306;11.350;2023-06-19T07:05:11;96306.22;;;20.25;100.00
596;BME280;19946;49.306;11.350;2023-06-19T07:08:11;96297.53;;;20.25;100.00
596;BME280;19946;49.306;11.350;2023-06-19T07:11:12;96293.09;;;20.25;100.00
596;BME280;19946;49.306;11.350;2023-06-19T07:14:12;96280.41;;;20.35;100.00
596;BME280;19946;49.306;11.350;2023-06-19T07:17:12;96287.22;;;20.58;100.00
596;BME280;19946;49.306;11.350;2023-06-19T07:20:13;96275.16;;;20.76;100.00
596;BME280;19946;49.306;11.350;2023-06-19T07:23:14;96292.25;;;21.13;100.00
596;BME280;19946;49.306;11.350;2023-06-19T07:26:14;96301.25;;;21.45;100.00
596;BME280;19946;49.306;11.350;2023-06-19T07:29:15;96301.44;;;21.44;100.00
596;BME280;19946;49.306;11.350;2023-06-19T07:32:15;96296.78;;;21.46;100.00
596;BME280;19946;49.306;11.350;2023-06-19T07:35:15;96291.28;;;21.21;100.00
596;BME280;19946;49.306;11.350;2023-06-19T07:38:16;96319.09;;;21.63;100.00
596;BME280;19946;49.306;11.350;2023-06-19T07:41:16;96315.63;;;21.30;100.00
596;BME280;19946;49.306;11.350;2023-06-19T07:44:16;96308.03;;;21.07;100.00
596;BME280;19946;49.306;11.350;2023-06-19T07:47:18;96301.69;;;20.82;100.00
596;BME280;19946;49.306;11.350;2023-06-19T07:50:18;96311.19;;;20.83;100.00
596;BME280;19946;49.306;11.350;2023-06-19T07:53:19;96328.22;;;20.87;100.00
596;BME280;19946;49.306;11.350;2023-06-19T07:56:20;96316.00;;;20.72;100.00
596;BME280;19946;49.306;11.350;2023-06-19T07:59:20;96325.94;;;20.77;100.00
596;BME280;19946;49.306;11.350;2023-06-19T08:02:20;96320.25;;;20.32;100.00
596;BME280;19946;49.306;11.350;2023-06-19T08:05:21;96322.63;;;19.72;100.00
596;BME280;19946;49.306;11.350;2023-06-19T08:08:21;96345.91;;;19.75;100.00
596;BME280;19946;49.306;11.350;2023-06-19T08:11:21;96346.56;;;19.83;100.00
596;BME280;19946;49.306;11.350;2023-06-19T08:14:22;96332.31;;;19.71;100.00
596;BME280;19946;49.306;11.350;2023-06-19T08:17:22;96349.00;;;20.13;100.00
596;BME280;19946;49.306;11.350;2023-06-19T08:20:22;96349.97;;;20.61;100.00
596;BME280;19946;49.306;11.350;2023-06-19T08:46:21;96316.13;;;20.23;100.00
596;BME280;19946;49.306;11.350;2023-06-19T08:49:29;96325.13;;;20.35;100.00
596;BME280;19946;49.306;11.350;2023-06-19T08:52:43;96306.34;;;20.11;100.00
596;BME280;19946;49.306;11.350;2023-06-19T08:59:17;96321.06;;;20.05;100.00
596;BME280;19946;49.306;11.350;2023-06-19T09:02:49;96303.22;;;20.28;100.00
596;BME280;19946;49.306;11.350;2023-06-19T09:06:56;96289.44;;;20.61;100.00
596;BME280;19946;49.306;11.350;2023-06-19T09:13:22;96353.91;;;21.26;100.00
596;BME280;19946;49.306;11.350;2023-06-19T09:23:12;96304.50;;;21.87;100.00
596;BME280;19946;49.306;11.350;2023-06-19T09:26:16;96310.34;;;22.29;100.00
596;BME280;19946;49.306;11.350;2023-06-19T09:29:17;96316.63;;;22.41;100.00
596;BME280;19946;49.306;11.350;2023-06-19T09:32:21;96346.94;;;23.03;100.00
596;BME280;19946;49.306;11.350;2023-06-19T09:35:22;96331.94;;;22.83;100.00
596;BME280;19946;49.306;11.350;2023-06-19T09:38:31;96316.25;;;22.31;100.00
596;BME280;19946;49.306;11.350;2023-06-19T09:41:32;96332.94;;;23.34;100.00
596;BME280;19946;49.306;11.350;2023-06-19T09:44:41;96327.47;;;23.91;91.79
596;BME280;19946;49.306;11.350;2023-06-19T09:47:46;96318.47;;;23.74;87.89
596;BME280;19946;49.306;11.350;2023-06-19T09:50:49;96328.72;;;23.89;100.00
596;BME280;19946;49.306;11.350;2023-06-19T09:53:50;96330.00;;;23.55;94.05
596;BME280;19946;49.306;11.350;2023-06-19T09:56:55;96279.22;;;23.40;100.00
596;BME280;19946;49.306;11.350;2023-06-19T10:03:15;96316.69;;;23.30;100.00
596;BME280;19946;49.306;11.350;2023-06-19T10:06:17;96314.56;;;23.52;100.00
596;BME280;19946;49.306;11.350;2023-06-19T11:09:33;96230.88;;;25.52;74.52
596;BME280;19946;49.306;11.350;2023-06-19T11:12:33;96213.28;;;25.80;69.48
596;BME280;19946;49.306;11.350;2023-06-19T11:15:34;96283.13;;;26.68;73.79
596;BME280;19946;49.306;11.350;2023-06-19T11:18:34;96271.06;;;26.88;66.95
596;BME280;19946;49.306;11.350;2023-06-19T11:21:37;96224.81;;;26.61;67.94
596;BME280;19946;49.306;11.350;2023-06-19T11:24:46;96236.94;;;26.05;66.21
596;BME280;19946;49.306;11.350;2023-06-19T11:27:46;96248.44;;;25.99;64.22
596;BME280;19946;49.306;11.350;2023-06-19T11:30:58;96273.94;;;26.59;65.59
596;BME280;19946;49.306;11.350;2023-06-19T11:33:59;96262.38;;;26.18;74.54
596;BME280;19946;49.306;11.350;2023-06-19T11:37:15;96271.53;;;26.45;69.03
596;BME280;19946;49.306;11.350;2023-06-19T11:40:16;96246.31;;;26.60;66.57
596;BME280;19946;49.306;11.350;2023-06-19T11:43:26;96244.19;;;26.73;69.77
596;BME280;19946;49.306;11.350;2023-06-19T11:46:31;96235.25;;;26.51;67.76
596;BME280;19946;49.306;11.350;2023-06-19T11:49:35;96274.19;;;26.34;60.50
596;BME280;19946;49.306;11.350;2023-06-19T11:52:36;96235.84;;;26.93;61.69
596;BME280;19946;49.306;11.350;2023-06-19T11:55:36;96241.41;;;28.20;58.23
596;BME280;19946;49.306;11.350;2023-06-19T11:58:36;96246.53;;;28.44;53.51
596;BME280;19946;49.306;11.350;2023-06-19T12:01:37;96247.72;;;27.19;59.57
596;BME280;19946;49.306;11.350;2023-06-19T12:04:38;96246.53;;;27.55;57.49
596;BME280;19946;49.306;11.350;2023-06-19T12:07:38;96242.47;;;28.19;54.90
596;BME280;19946;49.306;11.350;2023-06-19T12:10:39;96242.63;;;27.96;53.84
596;BME280;19946;49.306;11.350;2023-06-19T12:13:40;96235.69;;;27.95;57.88
596;BME280;19946;49.306;11.350;2023-06-19T12:16:41;96211.91;;;28.44;53.69
596;BME280;19946;49.306;11.350;2023-06-19T12:19:41;96245.59;;;27.49;51.68
596;BME280;19946;49.306;11.350;2023-06-19T12:22:42;96236.41;;;26.55;55.72
596;BME280;19946;49.306;11.350;2023-06-19T12:25:42;96197.69;;;26.99;56.39
596;BME280;19946;49.306;11.350;2023-06-19T12:28:43;96216.94;;;26.78;55.91
596;BME280;19946;49.306;11.350;2023-06-19T12:31:43;96220.75;;;26.30;60.08
596;BME280;19946;49.306;11.350;2023-06-19T12:34:44;96211.19;;;26.69;57.99
596;BME280;19946;49.306;11.350;2023-06-19T12:37:46;96218.97;;;26.87;55.37
596;BME280;19946;49.306;11.350;2023-06-19T12:40:47;96202.44;;;26.97;55.14
596;BME280;19946;49.306;11.350;2023-06-19T12:43:47;96214.31;;;26.66;55.55
596;BME280;19946;49.306;11.350;2023-06-19T12:46:47;96174.69;;;26.36;55.31
596;BME280;19946;49.306;11.350;2023-06-19T12:49:48;96199.06;;;27.02;55.87
596;BME280;19946;49.306;11.350;2023-06-19T12:52:50;96207.78;;;27.14;54.17
596;BME280;19946;49.306;11.350;2023-06-19T12:55:51;96191.22;;;27.74;54.20
596;BME280;19946;49.306;11.350;2023-06-19T12:58:51;96213.59;;;28.77;51.28
596;BME280;19946;49.306;11.350;2023-06-19T13:01:51;96182.97;;;29.65;50.09
596;BME280;19946;49.306;11.350;2023-06-19T13:04:52;96191.72;;;28.75;47.93
596;BME280;19946;49.306;11.350;2023-06-19T13:07:52;96168.47;;;27.83;49.67
596;BME280;19946;49.306;11.350;2023-06-19T13:10:53;96208.16;;;29.15;48.34
596;BME280;19946;49.306;11.350;2023-06-19T13:13:53;96201.66;;;30.02;45.59
596;BME280;19946;49.306;11.350;2023-06-19T13:16:53;96194.41;;;30.49;43.43
596;BME280;19946;49.306;11.350;2023-06-19T13:19:53;96153.41;;;29.71;44.33
596;BME280;19946;49.306;11.350;2023-06-19T13:22:54;96140.63;;;29.10;45.88
596;BME280;19946;49.306;11.350;2023-06-19T13:25:54;96173.44;;;29.10;47.86
596;BME280;19946;49.306;11.350;2023-06-19T13:28:54;96160.16;;;29.15;46.09
596;BME280;19946;49.306;11.350;2023-06-19T13:31:59;96170.09;;;29.25;46.96
596;BME280;19946;49.306;11.350;2023-06-19T13:34:59;96155.22;;;29.29;45.93
596;BME280;19946;49.306;11.350;2023-06-19T13:37:59;96154.16;;;29.30;46.45
596;BME280;19946;49.306;11.350;2023-06-19T13:41:00;96166.59;;;27.83;49.32
596;BME280;19946;49.306;11.350;2023-06-19T13:44:00;96135.38;;;27.23;50.26
596;BME280;19946;49.306;11.350;2023-06-19T13:47:01;96163.41;;;27.14;49.53
596;BME280;19946;49.306;11.350;2023-06-19T13:50:01;96163.38;;;26.69;49.92
596;BME280;19946;49.306;11.350;2023-06-19T13:53:01;96162.88;;;26.72;50.12
596;BME280;19946;49.306;11.350;2023-06-19T13:56:02;96065.34;;;25.71;52.35
596;BME280;19946;49.306;11.350;2023-06-19T13:59:02;96143.66;;;26.37;51.50
596;BME280;19946;49.306;11.350;2023-06-19T14:02:03;96155.31;;;26.64;50.99
596;BME280;19946;49.306;11.350;2023-06-19T14:05:08;96159.50;;;26.60;52.92
596;BME280;19946;49.306;11.350;2023-06-19T14:08:08;96211.88;;;25.66;58.43
596;BME280;19946;49.306;11.350;2023-06-19T14:11:09;96205.78;;;23.55;96.60
596;BME280;19946;49.306;11.350;2023-06-19T14:14:09;96251.25;;;23.32;100.00
596;BME280;19946;49.306;11.350;2023-06-19T14:17:10;96267.63;;;21.41;100.00
596;BME280;19946;49.306;11.350;2023-06-19T14:20:11;96266.25;;;20.02;100.00
596;BME280;19946;49.306;11.350;2023-06-19T14:23:11;96266.13;;;19.54;100.00
596;BME280;19946;49.306;11.350;2023-06-19T14:26:12;96261.16;;;19.45;100.00
596;BME280;19946;49.306;11.350;2023-06-19T14:29:12;96158.72;;;18.68;100.00
596;BME280;19946;49.306;11.350;2023-06-19T14:32:15;96204.81;;;19.19;100.00
596;BME280;19946;49.306;11.350;2023-06-19T14:35:15;96219.06;;;19.59;100.00
596;BME280;19946;49.306;11.350;2023-06-19T14:38:16;96183.72;;;19.34;100.00
596;BME280;19946;49.306;11.350;2023-06-19T14:41:17;96187.19;;;19.62;100.00
596;BME280;19946;49.306;11.350;2023-06-19T14:44:17;96168.09;;;19.82;100.00
596;BME280;19946;49.306;11.350;2023-06-19T14:47:18;96192.78;;;20.22;100.00
596;BME280;19946;49.306;11.350;2023-06-19T14:50:18;96183.44;;;20.80;100.00
596;BME280;19946;49.306;11.350;2023-06-19T14:53:18;96184.31;;;21.13;100.00
596;BME280;19946;49.306;11.350;2023-06-19T14:56:19;96163.25;;;21.53;100.00
596;BME280;19946;49.306;11.350;2023-06-19T14:59:19;96175.06;;;22.21;100.00
596;BME280;19946;49.306;11.350;2023-06-19T15:02:19;96164.97;;;22.56;100.00
596;BME280;19946;49.306;11.350;2023-06-19T15:05:19;96183.09;;;22.84;100.00
596;BME280;19946;49.306;11.350;2023-06-19T15:08:20;96172.78;;;23.08;100.00
596;BME280;19946;49.306;11.350;2023-06-19T15:11:22;96156.44;;;23.17;100.00
596;BME280;19946;49.306;11.350;2023-06-19T15:14:22;96173.00;;;23.06;100.00
596;BME280;19946;49.306;11.350;2023-06-19T15:17:22;96144.09;;;22.48;100.00
596;BME280;19946;49.306;11.350;2023-06-19T15:20:23;96174.34;;;22.84;100.00
596;BME280;19946;49.306;11.350;2023-06-19T15:23:23;96174.97;;;22.86;100.00
596;BME280;19946;49.306;11.350;2023-06-19T15:26:23;96127.72;;;22.71;100.00
596;BME280;19946;49.306;11.350;2023-06-19T15:29:24;96143.53;;;22.78;100.00
596;BME280;19946;49.306;11.350;2023-06-19T15:32:24;96176.53;;;23.25;100.00
596;BME280;19946;49.306;11.350;2023-06-19T15:35:25;96173.84;;;23.56;100.00
596;BME280;19946;49.306;11.350;2023-06-19T15:38:25;96154.63;;;23.18;100.00
596;BME280;19946;49.306;11.350;2023-06-19T15:41:25;96169.97;;;23.27;100.00
596;BME280;19946;49.306;11.350;2023-06-19T15:44:26;96165.91;;;23.32;100.00
596;BME280;19946;49.306;11.350;2023-06-19T15:47:26;96154.34;;;23.01;100.00
596;BME280;19946;49.306;11.350;2023-06-19T15:50:27;96144.31;;;23.10;100.00
596;BME280;19946;49.306;11.350;2023-06-19T15:53:27;96108.97;;;23.11;100.00
596;BME280;19946;49.306;11.350;2023-06-19T15:56:27;96122.91;;;23.43;100.00
596;BME280;19946;49.306;11.350;2023-06-19T15:59:28;96132.16;;;23.77;100.00
596;BME280;19946;49.306;11.350;2023-06-19T16:02:28;96143.63;;;23.46;100.00
596;BME280;19946;49.306;11.350;2023-06-19T16:05:30;96145.59;;;22.76;100.00
596;BME280;19946;49.306;11.350;2023-06-19T16:08:30;96134.59;;;22.72;100.00
596;BME280;19946;49.306;11.350;2023-06-19T16:11:30;96130.88;;;22.17;100.00
596;BME280;19946;49.306;11.350;2023-06-19T16:14:31;96113.13;;;21.79;100.00
596;BME280;19946;49.306;11.350;2023-06-19T16:17:31;96136.59;;;22.01;100.00
596;BME280;19946;49.306;11.350;2023-06-19T16:20:31;96119.19;;;21.86;100.00
596;BME280;19946;49.306;11.350;2023-06-19T16:23:32;96092.91;;;21.60;100.00
596;BME280;19946;49.306;11.350;2023-06-19T16:26:33;96115.09;;;22.04;100.00
596;BME280;19946;49.306;11.350;2023-06-19T16:29:34;96118.56;;;22.04;100.00
596;BME280;19946;49.306;11.350;2023-06-19T16:32:34;96122.72;;;22.18;100.00
596;BME280;19946;49.306;11.350;2023-06-19T16:35:35;96101.94;;;21.91;100.00
596;BME280;19946;49.306;11.350;2023-06-19T16:38:35;96134.84;;;21.68;100.00
596;BME280;19946;49.306;11.350;2023-06-19T16:41:35;96094.63;;;22.06;100.00
596;BME280;19946;49.306;11.350;2023-06-19T16:44:36;96137.00;;;22.04;100.00
596;BME280;19946;49.306;11.350;2023-06-19T16:47:36;96127.44;;;22.16;100.00
596;BME280;19946;49.306;11.350;2023-06-19T16:50:37;96140.13;;;22.33;100.00
596;BME280;19946;49.306;11.350;2023-06-19T16:53:38;96131.09;;;22.15;100.00
596;BME280;19946;49.306;11.350;2023-06-19T16:56:39;96130.56;;;22.38;100.00
596;BME280;19946;49.306;11.350;2023-06-19T16:59:39;96125.03;;;22.46;100.00
596;BME280;19946;49.306;11.350;2023-06-19T17:02:39;96135.88;;;22.63;100.00
596;BME280;19946;49.306;11.350;2023-06-19T17:05:40;96108.78;;;22.49;100.00
596;BME280;19946;49.306;11.350;2023-06-19T17:08:40;96152.53;;;23.02;100.00
596;BME280;19946;49.306;11.350;2023-06-19T17:11:40;96150.03;;;23.32;100.00
596;BME280;19946;49.306;11.350;2023-06-19T17:14:41;96133.88;;;23.21;100.00
596;BME280;19946;49.306;11.350;2023-06-19T17:17:42;96135.53;;;23.41;100.00
596;BME280;19946;49.306;11.350;2023-06-19T17:20:42;96128.19;;;23.68;100.00
596;BME280;19946;49.306;11.350;2023-06-19T17:23:43;96132.59;;;24.10;100.00
596;BME280;19946;49.306;11.350;2023-06-19T17:26:43;96121.91;;;24.17;100.00
596;BME280;19946;49.306;11.350;2023-06-19T17:29:43;96151.97;;;24.41;100.00
596;BME280;19946;49.306;11.350;2023-06-19T17:32:43;96140.66;;;24.15;100.00
596;BME280;19946;49.306;11.350;2023-06-19T17:35:45;96118.19;;;23.70;100.00
596;BME280;19946;49.306;11.350;2023-06-19T17:38:45;96114.69;;;23.08;100.00
596;BME280;19946;49.306;11.350;2023-06-19T17:41:45;96148.31;;;23.19;100.00
596;BME280;19946;49.306;11.350;2023-06-19T17:44:46;96140.81;;;23.16;100.00
596;BME280;19946;49.306;11.350;2023-06-19T17:47:47;96147.41;;;23.07;100.00
596;BME280;19946;49.306;11.350;2023-06-19T17:50:47;96114.75;;;22.70;100.00
596;BME280;19946;49.306;11.350;2023-06-19T17:53:48;96138.06;;;22.73;100.00
596;BME280;19946;49.306;11.350;2023-06-19T17:56:48;96113.59;;;22.59;100.00
596;BME280;19946;49.306;11.350;2023-06-19T17:59:48;96136.00;;;22.75;100.00
596;BME280;19946;49.306;11.350;2023-06-19T18:02:49;96125.38;;;22.56;100.00
596;BME280;19946;49.306;11.350;2023-06-19T18:05:49;96137.31;;;22.28;100.00
596;BME280;19946;49.306;11.350;2023-06-19T18:08:49;96135.94;;;22.12;100.00
596;BME280;19946;49.306;11.350;2023-06-19T18:11:50;96130.16;;;21.77;100.00
596;BME280;19946;49.306;11.350;2023-06-19T18:14:50;96101.88;;;21.39;100.00
596;BME280;19946;49.306;11.350;2023-06-19T18:17:50;96127.56;;;21.57;100.00
596;BME280;19946;49.306;11.350;2023-06-19T18:20:51;96139.28;;;21.81;100.00
596;BME280;19946;49.306;11.350;2023-06-19T18:23:51;96121.66;;;21.68;100.00
596;BME280;19946;49.306;11.350;2023-06-19T18:26:51;96148.00;;;21.81;100.00
596;BME280;19946;49.306;11.350;2023-06-19T18:29:52;96132.22;;;21.68;100.00
596;BME280;19946;49.306;11.350;2023-06-19T18:32:52;96134.06;;;21.55;100.00
596;BME280;19946;49.306;11.350;2023-06-19T18:35:52;96137.94;;;21.45;100.00
596;BME280;19946;49.306;11.350;2023-06-19T18:38:52;96130.84;;;21.39;100.00
596;BME280;19946;49.306;11.350;2023-06-19T18:41:53;96142.19;;;21.07;100.00
596;BME280;19946;49.306;11.350;2023-06-19T18:44:54;96128.16;;;20.67;100.00
596;BME280;19946;49.306;11.350;2023-06-19T18:47:55;96125.53;;;20.54;100.00
596;BME280;19946;49.306;11.350;2023-06-19T18:50:55;96106.09;;;20.42;100.00
596;BME280;19946;49.306;11.350;2023-06-19T18:53:55;96120.44;;;20.46;100.00
596;BME280;19946;49.306;11.350;2023-06-19T18:56:56;96131.81;;;20.66;100.00
596;BME280;19946;49.306;11.350;2023-06-19T18:59:57;96137.84;;;20.47;100.00
596;BME280;19946;49.306;11.350;2023-06-19T19:02:57;96112.72;;;19.77;100.00
596;BME280;19946;49.306;11.350;2023-06-19T19:05:58;96134.38;;;19.51;100.00
596;BME280;19946;49.306;11.350;2023-06-19T19:08:58;96117.47;;;19.32;100.00
596;BME280;19946;49.306;11.350;2023-06-19T19:11:59;96149.78;;;19.32;100.00
596;BME280;19946;49.306;11.350;2023-06-19T19:14:59;96168.72;;;19.28;100.00
596;BME280;19946;49.306;11.350;2023-06-19T19:18:02;96168.00;;;19.13;100.00
596;BME280;19946;49.306;11.350;2023-06-19T19:21:03;96178.94;;;19.16;100.00
596;BME280;19946;49.306;11.350;2023-06-19T19:24:03;96182.38;;;19.17;100.00
596;BME280;19946;49.306;11.350;2023-06-19T19:27:04;96187.38;;;19.12;100.00
596;BME280;19946;49.306;11.350;2023-06-19T19:30:05;96162.28;;;18.81;100.00
596;BME280;19946;49.306;11.350;2023-06-19T19:33:06;96166.66;;;18.74;100.00
596;BME280;19946;49.306;11.350;2023-06-19T19:36:06;96181.50;;;18.67;100.00
596;BME280;19946;49.306;11.350;2023-06-19T19:39:07;96194.44;;;18.90;100.00
596;BME280;19946;49.306;11.350;2023-06-19T19:42:08;96180.06;;;18.86;100.00
596;BME280;19946;49.306;11.350;2023-06-19T19:45:09;96171.16;;;18.59;100.00
596;BME280;19946;49.306;11.350;2023-06-19T19:48:09;96199.63;;;18.83;100.00
596;BME280;19946;49.306;11.350;2023-06-19T19:51:09;96173.28;;;18.70;100.00
596;BME280;19946;49.306;11.350;2023-06-19T19:54:11;96151.41;;;18.63;100.00
596;BME280;19946;49.306;11.350;2023-06-19T19:57:11;96183.47;;;18.80;100.00
596;BME280;19946;49.306;11.350;2023-06-19T20:00:12;96195.63;;;18.87;100.00
596;BME280;19946;49.306;11.350;2023-06-19T20:03:14;96186.41;;;18.70;100.00
596;BME280;19946;49.306;11.350;2023-06-19T20:06:14;96154.31;;;18.53;100.00
596;BME280;19946;49.306;11.350;2023-06-19T20:09:15;96201.16;;;18.92;100.00
596;BME280;19946;49.306;11.350;2023-06-19T20:12:15;96173.19;;;18.85;100.00
596;BME280;19946;49.306;11.350;2023-06-19T20:15:16;96197.88;;;19.12;100.00
596;BME280;19946;49.306;11.350;2023-06-19T20:18:16;96182.06;;;18.84;100.00
596;BME280;19946;49.306;11.350;2023-06-19T20:21:16;96211.69;;;18.99;100.00
596;BME280;19946;49.306;11.350;2023-06-19T20:24:17;96186.81;;;18.74;100.00
596;BME280;19946;49.306;11.350;2023-06-19T20:27:17;96194.06;;;18.72;100.00
596;BME280;19946;49.306;11.350;2023-06-19T20:30:17;96203.25;;;18.46;100.00
596;BME280;19946;49.306;11.350;2023-06-19T20:33:18;96191.00;;;18.17;100.00
596;BME280;19946;49.306;11.350;2023-06-19T20:36:18;96200.81;;;18.30;100.00
596;BME280;19946;49.306;11.350;2023-06-19T20:39:19;96194.16;;;18.28;100.00
596;BME280;19946;49.306;11.350;2023-06-19T20:42:19;96182.53;;;18.15;100.00
596;BME280;19946;49.306;11.350;2023-06-19T20:45:19;96194.06;;;18.21;100.00
596;BME280;19946;49.306;11.350;2023-06-19T20:48:23;96198.47;;;18.35;100.00
596;BME280;19946;49.306;11.350;2023-06-19T20:51:24;96201.97;;;18.42;100.00
596;BME280;19946;49.306;11.350;2023-06-19T20:54:24;96204.59;;;18.42;100.00
596;BME280;19946;49.306;11.350;2023-06-19T20:57:24;96164.25;;;18.22;100.00
596;BME280;19946;49.306;11.350;2023-06-19T21:00:24;96221.31;;;18.56;100.00
596;BME280;19946;49.306;11.350;2023-06-19T21:03:25;96161.03;;;18.05;100.00
596;BME280;19946;49.306;11.350;2023-06-19T21:06:27;96194.41;;;18.33;100.00
596;BME280;19946;49.306;11.350;2023-06-19T21:09:27;96205.41;;;17.92;100.00
596;BME280;19946;49.306;11.350;2023-06-19T21:12:28;96215.69;;;17.94;100.00
596;BME280;19946;49.306;11.350;2023-06-19T21:15:28;96191.81;;;17.74;100.00
596;BME280;19946;49.306;11.350;2023-06-19T21:18:28;96191.94;;;17.80;100.00
596;BME280;19946;49.306;11.350;2023-06-19T21:21:28;96183.38;;;17.72;100.00
596;BME280;19946;49.306;11.350;2023-06-19T21:24:29;96185.06;;;17.79;100.00
596;BME280;19946;49.306;11.350;2023-06-19T21:27:29;96199.88;;;18.16;100.00
596;BME280;19946;49.306;11.350;2023-06-19T21:30:30;96193.81;;;18.52;100.00
596;BME280;19946;49.306;11.350;2023-06-19T21:33:31;96198.69;;;18.55;100.00
596;BME280;19946;49.306;11.350;2023-06-19T21:36:32;96215.06;;;18.57;100.00
596;BME280;19946;49.306;11.350;2023-06-19T21:39:33;96227.91;;;18.52;100.00
596;BME280;19946;49.306;11.350;2023-06-19T21:42:33;96191.59;;;18.34;100.00
596;BME280;19946;49.306;11.350;2023-06-19T21:45:33;96204.38;;;18.22;100.00
596;BME280;19946;49.306;11.350;2023-06-19T21:48:33;96159.94;;;17.85;100.00
596;BME280;19946;49.306;11.350;2023-06-19T21:51:34;96180.91;;;17.85;100.00
596;BME280;19946;49.306;11.350;2023-06-19T21:54:35;96204.56;;;18.06;100.00
596;BME280;19946;49.306;11.350;2023-06-19T21:57:35;96169.53;;;17.78;100.00
596;BME280;19946;49.306;11.350;2023-06-19T22:00:39;96138.25;;;17.47;100.00
596;BME280;19946;49.306;11.350;2023-06-19T22:03:39;96187.41;;;17.89;100.00
596;BME280;19946;49.306;11.350;2023-06-19T22:06:42;96121.81;;;17.53;100.00
596;BME280;19946;49.306;11.350;2023-06-19T22:09:43;96181.91;;;17.99;100.00
596;BME280;19946;49.306;11.350;2023-06-19T22:12:43;96184.56;;;18.20;100.00
596;BME280;19946;49.306;11.350;2023-06-19T22:15:43;96155.09;;;18.33;100.00
596;BME280;19946;49.306;11.350;2023-06-19T22:18:44;96155.75;;;18.56;100.00
596;BME280;19946;49.306;11.350;2023-06-19T22:21:44;96142.19;;;18.67;100.00
596;BME280;19946;49.306;11.350;2023-06-19T22:24:44;96160.03;;;19.00;100.00
596;BME280;19946;49.306;11.350;2023-06-19T22:27:45;96170.69;;;19.19;100.00
596;BME280;19946;49.306;11.350;2023-06-19T22:30:46;96142.59;;;19.13;100.00
596;BME280;19946;49.306;11.350;2023-06-19T22:33:46;96192.72;;;19.46;100.00
596;BME280;19946;49.306;11.350;2023-06-19T22:36:46;96164.91;;;19.03;100.00
596;BME280;19946;49.306;11.350;2023-06-19T22:39:47;96189.84;;;18.92;100.00
596;BME280;19946;49.306;11.350;2023-06-19T22:42:47;96187.09;;;18.79;100.00
596;BME280;19946;49.306;11.350;2023-06-19T22:45:47;96180.06;;;18.65;100.00
596;BME280;19946;49.306;11.350;2023-06-19T22:48:48;96143.25;;;18.37;100.00
596;BME280;19946;49.306;11.350;2023-06-19T22:51:52;96148.88;;;18.55;100.00
596;BME280;19946;49.306;11.350;2023-06-19T22:54:52;96136.81;;;18.39;100.00